createdAt,value
2022-11-16T00:02:15.999Z,98567.88
2022-11-16T00:04:44.640Z,98569.59
2022-11-16T00:07:14.679Z,98572.09
2022-11-16T00:09:43.156Z,98566.97
2022-11-16T00:12:13.015Z,98580.66
2022-11-16T00:14:43.692Z,98574.69
2022-11-16T00:17:12.177Z,98577.28
2022-11-16T00:19:40.522Z,98591.00
2022-11-16T00:22:08.795Z,98587.63
2022-11-16T00:24:38.743Z,98591.13
2022-11-16T00:27:07.093Z,98582.63
2022-11-16T00:29:38.231Z,98591.22
2022-11-16T00:32:06.609Z,98591.22
2022-11-16T00:34:34.932Z,98590.38
2022-11-16T00:37:06.999Z,98584.41
2022-11-16T00:39:39.835Z,98586.13
2022-11-16T00:42:12.249Z,98588.69
2022-11-16T00:44:40.447Z,98579.28
2022-11-16T00:47:14.330Z,98586.13
2022-11-16T00:49:45.053Z,98582.72
2022-11-16T00:52:13.349Z,98580.97
2022-11-16T00:54:42.963Z,98578.41
2022-11-16T00:57:11.239Z,98568.16
2022-11-16T00:59:39.516Z,98563.00
2022-11-16T01:02:10.152Z,98558.75
2022-11-16T01:04:38.375Z,98556.19
2022-11-16T01:07:09.447Z,98564.75
2022-11-16T01:09:37.958Z,98563.03
2022-11-16T01:12:10.691Z,98553.63
2022-11-16T01:14:39.265Z,98559.59
2022-11-16T01:17:07.470Z,98558.75
2022-11-16T01:19:38.691Z,98557.88
2022-11-16T01:22:07.218Z,98564.72
2022-11-16T01:24:35.345Z,98552.72
2022-11-16T01:27:03.631Z,98550.19
2022-11-16T01:29:33.641Z,98549.28
2022-11-16T01:32:06.017Z,98549.28
2022-11-16T01:34:34.648Z,98541.59
2022-11-16T01:37:04.796Z,98545.88
2022-11-16T01:39:33.097Z,98540.75
2022-11-16T01:42:01.381Z,98531.41
2022-11-16T01:45:04.329Z,98537.44
2022-11-16T01:47:32.919Z,98537.47
2022-11-16T01:50:07.989Z,98537.47
2022-11-16T01:52:40.671Z,98540.06
2022-11-16T01:55:09.463Z,98540.06
2022-11-16T01:57:43.777Z,98541.78
2022-11-16T02:00:15.862Z,98546.91
2022-11-16T02:02:44.632Z,98546.03
2022-11-16T02:05:22.857Z,98542.63
2022-11-16T02:08:25.375Z,98542.59
2022-11-16T02:11:11.786Z,98538.34
2022-11-16T02:13:48.093Z,98541.75
2022-11-16T02:16:26.243Z,98543.47
2022-11-16T02:19:02.979Z,98545.19
2022-11-16T02:21:40.778Z,98535.81
2022-11-16T02:24:37.922Z,98539.19
2022-11-16T02:27:44.864Z,98537.47
2022-11-16T02:30:15.295Z,98536.63
2022-11-16T02:32:49.621Z,98534.94
2022-11-16T02:35:22.547Z,98530.66
2022-11-16T02:37:55.929Z,98537.47
2022-11-16T02:40:27.857Z,98530.59
2022-11-16T02:43:01.554Z,98529.78
2022-11-16T02:45:36.546Z,98522.94
2022-11-16T02:48:10.917Z,98517.84
2022-11-16T02:50:40.543Z,98517.84
2022-11-16T02:53:08.854Z,98513.59
2022-11-16T02:55:38.217Z,98511.91
2022-11-16T02:58:08.531Z,98515.28
2022-11-16T03:00:44.729Z,98522.97
2022-11-16T03:03:28.300Z,98511.84
2022-11-16T03:06:08.835Z,98514.41
2022-11-16T03:08:41.024Z,98516.13
2022-11-16T03:11:28.235Z,98521.19
2022-11-16T03:13:59.207Z,98508.41
2022-11-16T03:16:33.025Z,98519.47
2022-11-16T03:19:25.057Z,98510.94
2022-11-16T03:22:00.412Z,98507.53
2022-11-16T03:24:28.785Z,98506.69
2022-11-16T03:27:03.989Z,98514.34
2022-11-16T03:29:34.562Z,98511.75
2022-11-16T03:32:13.079Z,98510.06
2022-11-16T03:34:45.099Z,98509.19
2022-11-16T03:37:14.925Z,98505.78
2022-11-16T03:39:44.117Z,98504.94
2022-11-16T03:42:15.403Z,98503.19
2022-11-16T03:44:46.554Z,98507.47
2022-11-16T03:47:18.578Z,98505.72
2022-11-16T03:49:47.810Z,98508.28
2022-11-16T03:52:21.057Z,98504.88
2022-11-16T03:54:51.801Z,98507.41
2022-11-16T03:57:21.305Z,98509.09
2022-11-16T03:59:51.984Z,98517.63
2022-11-16T04:02:21.641Z,98509.09
2022-11-16T04:05:07.373Z,98509.06
2022-11-16T04:07:52.909Z,98511.63
2022-11-16T04:10:38.394Z,98510.75
2022-11-16T04:13:39.019Z,98510.75
2022-11-16T04:16:35.865Z,98512.44
2022-11-16T04:19:19.311Z,98514.94
2022-11-16T04:22:09.124Z,98514.09
2022-11-16T04:24:40.841Z,98514.09
2022-11-16T04:27:29.661Z,98512.38
2022-11-16T04:30:00.558Z,98520.00
2022-11-16T04:32:45.975Z,98522.56
2022-11-16T04:35:33.074Z,98520.00
2022-11-16T04:38:01.270Z,98516.56
2022-11-16T04:40:30.267Z,98529.28
2022-11-16T04:43:00.471Z,98528.44
2022-11-16T04:45:42.988Z,98529.25
2022-11-16T04:48:11.892Z,98534.38
2022-11-16T04:50:42.215Z,98536.09
2022-11-16T04:53:10.698Z,98537.75
2022-11-16T04:55:39.023Z,98526.69
2022-11-16T04:58:07.293Z,98520.69
2022-11-16T05:00:35.539Z,98528.34
2022-11-16T05:03:08.568Z,98527.53
2022-11-16T05:05:38.578Z,98530.91
2022-11-16T05:08:09.319Z,98527.53
2022-11-16T05:10:38.010Z,98532.59
2022-11-16T05:13:06.301Z,98536.81
2022-11-16T05:15:34.411Z,98540.22
2022-11-16T05:18:02.997Z,98538.50
2022-11-16T05:20:48.518Z,98539.34
2022-11-16T05:23:35.908Z,98543.56
2022-11-16T05:26:04.133Z,98540.19
2022-11-16T05:28:32.565Z,98544.44
2022-11-16T05:31:00.938Z,98546.16
2022-11-16T05:33:29.114Z,98551.25
2022-11-16T05:35:57.287Z,98552.94
2022-11-16T05:38:26.892Z,98549.50
2022-11-16T05:40:55.073Z,98555.47
2022-11-16T05:43:23.385Z,98554.56
2022-11-16T05:45:51.582Z,98556.28
2022-11-16T05:48:20.108Z,98559.66
2022-11-16T05:50:48.694Z,98556.22
2022-11-16T05:53:16.870Z,98556.19
2022-11-16T05:55:46.552Z,98555.34
2022-11-16T05:58:14.695Z,98551.91
2022-11-16T06:00:43.134Z,98555.28
2022-11-16T06:03:11.378Z,98558.69
2022-11-16T06:05:40.845Z,98553.56
2022-11-16T06:08:09.256Z,98551.84
2022-11-16T06:10:38.040Z,98556.09
2022-11-16T06:13:07.686Z,98563.72
2022-11-16T06:15:38.566Z,98567.91
2022-11-16T06:18:07.514Z,98566.25
2022-11-16T06:20:36.259Z,98561.09
2022-11-16T06:23:04.586Z,98562.75
2022-11-16T06:25:32.845Z,98559.38
2022-11-16T06:28:07.662Z,98562.75
2022-11-16T06:30:38.436Z,98561.00
2022-11-16T06:33:08.764Z,98560.13
2022-11-16T06:35:36.972Z,98567.75
2022-11-16T06:38:05.217Z,98566.00
2022-11-16T06:40:35.743Z,98570.22
2022-11-16T06:43:04.033Z,98569.34
2022-11-16T06:45:33.430Z,98572.69
2022-11-16T06:48:06.117Z,98571.00
2022-11-16T06:50:40.631Z,98572.69
2022-11-16T06:53:29.390Z,98578.63
2022-11-16T06:56:08.283Z,98580.31
2022-11-16T06:58:37.325Z,98578.59
2022-11-16T07:01:09.455Z,98576.88
2022-11-16T07:03:39.494Z,98583.63
2022-11-16T07:06:09.301Z,98589.63
2022-11-16T07:08:37.709Z,98587.91
2022-11-16T07:11:07.970Z,98589.56
2022-11-16T07:13:37.255Z,98593.78
2022-11-16T07:16:07.072Z,98593.78
2022-11-16T07:18:36.573Z,98589.50
2022-11-16T07:21:10.647Z,98591.16
2022-11-16T07:23:39.031Z,98589.44
2022-11-16T07:26:08.678Z,98593.72
2022-11-16T07:28:37.890Z,98586.84
2022-11-16T07:31:08.913Z,98598.69
2022-11-16T07:33:37.272Z,98591.84
2022-11-16T07:36:07.364Z,98590.09
2022-11-16T07:38:37.648Z,98598.56
2022-11-16T07:41:09.225Z,98599.38
2022-11-16T07:43:37.440Z,98611.25
2022-11-16T07:46:44.687Z,98605.25
2022-11-16T07:48:54.812Z,98603.59
2022-11-16T07:51:23.009Z,98596.78
2022-11-16T07:53:55.746Z,98596.84
2022-11-16T07:56:28.285Z,98600.28
2022-11-16T07:58:56.429Z,98602.81
2022-11-16T08:01:55.759Z,98604.50
2022-11-16T08:04:24.182Z,98604.50
2022-11-16T08:06:52.603Z,98606.22
2022-11-16T08:09:22.346Z,98601.13
2022-11-16T08:11:51.512Z,98606.22
2022-11-16T08:14:22.238Z,98599.44
2022-11-16T08:17:02.315Z,98595.19
2022-11-16T08:19:36.675Z,98595.25
2022-11-16T08:22:05.033Z,98592.72
2022-11-16T08:24:34.515Z,98591.09
2022-11-16T08:27:03.089Z,98587.72
2022-11-16T08:29:31.277Z,98589.44
2022-11-16T08:31:59.345Z,98592.88
2022-11-16T08:34:27.462Z,98590.34
2022-11-16T08:36:55.598Z,98593.72
2022-11-16T08:39:24.107Z,98601.41
2022-11-16T08:41:53.586Z,98602.31
2022-11-16T08:44:21.624Z,98596.44
2022-11-16T08:46:51.772Z,98603.31
2022-11-16T08:49:19.666Z,98594.84
2022-11-16T08:51:47.792Z,98599.16
2022-11-16T08:54:16.061Z,98591.56
2022-11-16T08:56:44.082Z,98594.16
2022-11-16T08:59:13.812Z,98599.31
2022-11-16T09:01:42.091Z,98595.94
2022-11-16T09:04:10.287Z,98595.13
2022-11-16T09:06:38.317Z,98592.63
2022-11-16T09:09:06.426Z,98587.59
2022-11-16T09:12:09.416Z,98593.56
2022-11-16T09:14:38.811Z,98591.94
2022-11-16T09:17:06.954Z,98601.34
2022-11-16T09:19:34.971Z,98603.13
2022-11-16T09:22:03.107Z,98603.16
2022-11-16T09:24:31.325Z,98600.69
2022-11-16T09:27:01.467Z,98602.44
2022-11-16T09:29:29.401Z,98601.66
2022-11-16T09:31:59.124Z,98594.91
2022-11-16T09:34:28.743Z,98595.81
2022-11-16T09:36:57.205Z,98604.34
2022-11-16T09:39:31.095Z,98597.56
2022-11-16T09:42:21.582Z,98599.28
2022-11-16T09:45:04.651Z,98595.97
2022-11-16T09:47:49.264Z,98597.72
2022-11-16T09:50:35.461Z,98595.19
2022-11-16T09:53:16.366Z,98595.22
2022-11-16T09:55:50.553Z,98602.94
2022-11-16T09:58:23.748Z,98591.03
2022-11-16T10:00:58.387Z,98598.69
2022-11-16T10:03:31.222Z,98597.88
2022-11-16T10:06:06.992Z,98596.19
2022-11-16T10:08:49.091Z,98604.75
2022-11-16T10:11:44.949Z,98606.47
2022-11-16T10:14:29.894Z,98604.81
2022-11-16T11:07:33.878Z,98600.66
2022-11-16T11:10:26.911Z,98587.84
2022-11-16T11:20:34.053Z,98589.44
2022-11-16T11:24:16.401Z,98574.03
2022-11-16T12:14:51.832Z,98524.63
2022-11-16T12:17:25.239Z,98510.41
2022-11-16T12:20:12.715Z,98510.66
2022-11-16T12:23:03.765Z,98505.84
2022-11-16T12:25:37.136Z,98497.41
2022-11-16T12:28:21.224Z,98496.63
2022-11-16T12:31:10.250Z,98499.16
2022-11-16T12:33:49.426Z,98495.72
2022-11-16T12:36:30.262Z,98494.78
2022-11-16T12:39:09.545Z,98490.44
2022-11-16T12:42:03.726Z,98498.00
2022-11-16T12:44:46.302Z,98492.78
2022-11-16T12:47:29.153Z,98486.66
2022-11-16T12:50:18.776Z,98489.13
2022-11-16T12:53:09.312Z,98499.28
2022-11-16T12:55:47.168Z,98493.19
2022-11-16T12:58:28.143Z,98496.44
2022-11-16T13:01:07.107Z,98492.78
2022-11-16T13:03:42.855Z,98490.91
2022-11-16T13:06:16.533Z,98501.03
2022-11-16T13:08:55.655Z,98500.09
2022-11-16T13:11:28.947Z,98497.34
2022-11-16T13:14:05.022Z,98485.16
2022-11-16T13:16:33.289Z,98480.69
2022-11-16T13:19:07.030Z,98477.00
2022-11-16T13:21:48.900Z,98466.53
2022-11-16T13:24:34.077Z,98468.94
2022-11-16T13:27:19.281Z,98463.69
2022-11-16T13:33:14.936Z,98458.94
2022-11-16T13:35:45.058Z,98448.47
2022-11-16T13:38:13.712Z,98447.44
2022-11-16T13:40:42.403Z,98438.72
2022-11-16T13:43:21.102Z,98437.03
2022-11-16T13:45:57.131Z,98430.06
2022-11-16T13:48:30.829Z,98418.09
2022-11-16T13:51:03.118Z,98424.94
2022-11-16T13:56:28.588Z,98427.25
2022-11-16T13:58:58.880Z,98412.72
2022-11-16T14:01:57.894Z,98414.78
2022-11-16T14:04:55.079Z,98408.94
2022-11-16T14:07:33.423Z,98409.72
2022-11-16T15:21:02.939Z,98399.78
2022-11-16T15:23:32.194Z,98404.97
2022-11-16T15:26:02.866Z,98404.97
2022-11-16T15:28:33.311Z,98399.97
2022-11-16T15:31:04.555Z,98389.03
2022-11-16T15:33:37.757Z,98393.41
2022-11-16T15:36:29.983Z,98391.88
2022-11-16T15:39:00.397Z,98386.00
2022-11-16T15:41:29.853Z,98386.16
2022-11-16T15:44:15.821Z,98386.22
2022-11-16T15:46:49.164Z,98389.81
2022-11-16T15:49:28.981Z,98383.91
2022-11-16T15:52:01.938Z,98383.13
2022-11-16T15:54:51.652Z,98375.50
2022-11-16T15:57:21.573Z,98383.34
2022-11-16T15:59:52.197Z,98388.69
2022-11-16T16:02:23.325Z,98384.59
2022-11-16T16:04:52.432Z,98394.16
2022-11-16T16:07:40.447Z,98389.88
2022-11-16T16:10:38.671Z,98397.41
2022-11-16T16:13:27.100Z,98388.59
2022-11-16T16:16:28.212Z,98395.25
2022-11-16T16:19:02.504Z,98395.06
2022-11-16T16:21:43.867Z,98389.84
2022-11-16T16:24:42.563Z,98388.09
2022-11-16T16:27:18.879Z,98385.56
2022-11-16T16:29:48.636Z,98392.56
2022-11-16T16:32:27.560Z,98391.25
2022-11-16T16:34:56.789Z,98399.25
2022-11-16T16:37:28.134Z,98390.88
2022-11-16T16:39:58.117Z,98384.31
2022-11-16T16:42:27.153Z,98387.03
2022-11-16T16:45:02.196Z,98390.59
2022-11-16T16:47:30.940Z,98383.81
2022-11-16T16:49:59.940Z,98383.81
2022-11-16T16:52:34.241Z,98384.63
2022-11-16T16:55:04.958Z,98393.13
2022-11-16T16:57:33.892Z,98394.69
2022-11-16T17:00:04.616Z,98397.13
2022-11-16T17:02:33.663Z,98397.84
2022-11-16T17:05:02.253Z,98400.41
2022-11-16T17:07:30.860Z,98411.63
2022-11-16T17:10:00.133Z,98422.03
2022-11-16T17:12:30.368Z,98415.50
2022-11-16T17:14:59.448Z,98426.22
2022-11-16T17:17:28.949Z,98425.56
2022-11-16T17:19:58.980Z,98420.53
2022-11-16T17:22:59.326Z,98420.59
2022-11-16T17:30:25.467Z,98412.31
2022-11-16T17:32:46.480Z,98412.25
2022-11-16T17:35:15.233Z,98404.50
2022-11-16T17:37:47.445Z,98416.50
2022-11-16T17:40:16.582Z,98414.75
2022-11-16T17:42:45.280Z,98408.84
2022-11-16T17:48:38.462Z,98403.97
2022-11-16T17:51:07.715Z,98411.78
2022-11-16T17:53:37.579Z,98408.44
2022-11-16T17:56:13.217Z,98407.63
2022-11-16T17:58:43.458Z,98407.59
2022-11-16T18:01:15.470Z,98416.16
2022-11-16T18:03:47.737Z,98417.91
2022-11-16T18:06:19.157Z,98413.66
2022-11-16T18:08:51.204Z,98418.81
2022-11-16T18:11:21.969Z,98417.16
2022-11-16T18:13:54.103Z,98414.59
2022-11-16T18:16:25.607Z,98408.59
2022-11-16T18:18:58.665Z,98418.94
2022-11-16T18:21:28.300Z,98411.28
2022-11-16T18:23:56.851Z,98411.25
2022-11-16T18:26:25.672Z,98413.78
2022-11-16T18:28:54.617Z,98418.88
2022-11-16T18:31:25.953Z,98421.38
2022-11-16T18:33:54.192Z,98419.63
2022-11-16T18:36:25.075Z,98420.50
2022-11-16T18:38:53.254Z,98422.22
2022-11-16T18:41:24.197Z,98421.38
2022-11-16T18:43:54.330Z,98428.25
2022-11-16T18:46:25.690Z,98424.81
2022-11-16T18:48:57.655Z,98423.97
2022-11-16T18:51:27.454Z,98422.19
2022-11-16T18:53:56.481Z,98429.06
2022-11-16T18:56:25.365Z,98436.81
2022-11-16T18:58:54.042Z,98441.06
2022-11-16T19:01:26.049Z,98434.25
2022-11-16T19:03:55.835Z,98437.63
2022-11-16T19:06:25.336Z,98442.75
2022-11-16T19:08:59.452Z,98439.31
2022-11-16T19:11:29.629Z,98442.78
2022-11-16T19:14:00.879Z,98433.41
2022-11-16T19:16:32.364Z,98436.91
2022-11-16T19:19:01.443Z,98437.81
2022-11-16T19:21:31.076Z,98427.56
2022-11-16T19:24:00.071Z,98431.06
2022-11-16T19:26:29.481Z,98427.69
2022-11-16T19:28:58.131Z,98424.28
2022-11-16T19:31:33.155Z,98427.72
2022-11-16T19:34:06.377Z,98436.28
2022-11-16T19:36:39.960Z,98443.13
2022-11-16T19:39:09.032Z,98437.97
2022-11-16T19:41:37.535Z,98439.63
2022-11-16T19:44:06.038Z,98435.31
2022-11-16T19:46:36.128Z,98435.28
2022-11-16T19:49:08.851Z,98436.19
2022-11-16T19:51:37.942Z,98428.44
2022-11-16T19:54:09.822Z,98425.91
2022-11-16T19:56:38.667Z,98437.88
2022-11-16T19:59:07.409Z,98434.47
2022-11-16T20:01:36.545Z,98431.06
2022-11-16T20:04:09.407Z,98438.81
2022-11-16T20:06:43.954Z,98436.25
2022-11-16T20:09:13.371Z,98441.41
2022-11-16T20:11:43.257Z,98436.25
2022-11-16T20:14:14.253Z,98438.81
2022-11-16T20:16:44.446Z,98437.13
2022-11-16T20:19:14.771Z,98444.78
2022-11-16T20:21:44.313Z,98442.22
2022-11-16T20:24:15.015Z,98435.44
2022-11-16T20:26:45.240Z,98432.88
2022-11-16T20:29:14.907Z,98439.75
2022-11-16T20:31:45.516Z,98437.22
2022-11-16T20:34:16.784Z,98428.72
2022-11-16T20:36:46.682Z,98432.19
2022-11-16T20:39:17.785Z,98438.22
2022-11-16T20:41:46.532Z,98447.63
2022-11-16T20:44:18.583Z,98438.28
2022-11-16T20:46:49.072Z,98441.69
2022-11-16T20:49:18.990Z,98443.44
2022-11-16T20:51:48.511Z,98441.69
2022-11-16T20:54:16.909Z,98451.97
2022-11-16T20:56:45.775Z,98442.56
2022-11-16T20:59:15.156Z,98458.00
2022-11-16T21:01:47.855Z,98449.47
2022-11-16T21:04:20.836Z,98466.66
2022-11-16T21:06:51.690Z,98457.31
2022-11-16T21:09:28.209Z,98464.19
2022-11-16T21:12:13.960Z,98465.91
2022-11-16T21:14:43.143Z,98467.63
2022-11-16T21:17:11.940Z,98465.88
2022-11-16T21:19:54.251Z,98480.41
2022-11-16T21:22:32.735Z,98477.84
2022-11-16T21:25:01.598Z,98480.41
2022-11-16T21:27:29.962Z,98483.00
2022-11-16T21:29:58.630Z,98481.28
2022-11-16T21:32:26.968Z,98481.31
2022-11-16T21:34:56.553Z,98494.97
2022-11-16T21:37:27.134Z,98492.38
2022-11-16T21:39:58.103Z,98491.50
2022-11-16T21:42:26.518Z,98494.06
2022-11-16T21:44:55.330Z,98499.22
2022-11-16T21:47:23.517Z,98486.44
2022-11-16T21:50:24.891Z,98492.41
2022-11-16T21:52:43.197Z,98491.56
2022-11-16T21:55:12.016Z,98489.88
2022-11-16T21:57:40.206Z,98488.19
2022-11-16T22:00:12.338Z,98488.19
2022-11-16T22:02:40.498Z,98498.41
2022-11-16T22:05:27.576Z,98500.94
2022-11-16T22:07:57.854Z,98494.09
2022-11-16T22:10:26.095Z,98495.84
2022-11-16T22:12:54.514Z,98496.69
2022-11-16T22:15:23.003Z,98491.53
2022-11-16T22:17:51.287Z,98495.84
2022-11-16T22:20:24.146Z,98490.75
2022-11-16T22:22:53.732Z,98505.34
2022-11-16T22:25:24.133Z,98505.38
2022-11-16T22:28:18.955Z,98501.97
2022-11-16T22:30:40.871Z,98502.03
2022-11-16T22:33:10.167Z,98512.28
2022-11-16T22:35:38.537Z,98507.22
2022-11-16T22:38:06.891Z,98502.13
2022-11-16T22:40:36.614Z,98518.41
2022-11-16T22:43:05.559Z,98512.44
2022-11-16T22:45:34.265Z,98518.47
2022-11-16T22:48:02.545Z,98522.72
2022-11-16T22:50:30.963Z,98515.91
2022-11-16T22:53:00.395Z,98522.72
2022-11-16T22:55:28.720Z,98515.94
2022-11-16T22:57:58.419Z,98524.47
2022-11-16T23:00:26.868Z,98527.91
2022-11-16T23:02:55.272Z,98525.38
2022-11-16T23:05:24.183Z,98533.06
2022-11-16T23:07:52.640Z,98530.53
2022-11-16T23:10:21.329Z,98522.81
2022-11-16T23:13:07.013Z,98531.38
2022-11-16T23:15:51.988Z,98526.28
2022-11-16T23:18:20.964Z,98527.94
2022-11-16T23:21:06.483Z,98530.53
2022-11-16T23:23:52.196Z,98524.56
2022-11-16T23:26:41.731Z,98527.97
2022-11-16T23:29:12.162Z,98524.56
2022-11-16T23:31:41.963Z,98534.81
2022-11-16T23:34:10.454Z,98537.41
2022-11-16T23:36:38.938Z,98540.81
2022-11-16T23:39:07.514Z,98534.84
2022-11-16T23:41:53.266Z,98545.97
2022-11-16T23:44:21.823Z,98541.69
2022-11-16T23:46:51.490Z,98548.53
2022-11-16T23:49:19.709Z,98551.94
2022-11-16T23:51:48.157Z,98545.13
2022-11-16T23:54:16.686Z,98551.97
2022-11-16T23:56:45.120Z,98557.94
2022-11-16T23:59:14.733Z,98547.69
